Time;durP1;ratioP1;P1;durP2;ratioP2;P2;SDS_P1;SDS_P2;PMS_P1;PMS_P2;Temp;Humidity;BMP_temperature;BMP_pressure;BME280_temperature;BME280_humidity;BME280_pressure;Samples;Min_cycle;Max_cycle;Signal;HPM_P1;HPM_P2
2022/06/12 00:00:27;;;;;;;3.93;3.63;;;;;;;35.16;20.81;94541.28;5064292;28;20797;-67
2022/06/12 00:03:15;;;;;;;3.90;3.50;;;;;;;34.86;21.38;94545.28;5058265;28;20589;-67
2022/06/12 00:06:01;;;;;;;5.80;4.10;;;;;;;34.86;21.54;94551.13;5053410;28;20281;-66
2022/06/12 00:08:45;;;;;;;5.50;3.70;;;;;;;35.13;20.93;94550.78;5046344;28;20194;-66
2022/06/12 00:11:29;;;;;;;10.97;3.80;;;;;;;34.93;21.02;94548.84;5049252;28;20259;-66
2022/06/12 00:14:15;;;;;;;9.93;4.23;;;;;;;35.09;21.45;94545.00;5052921;28;20198;-66
2022/06/12 00:16:59;;;;;;;6.60;4.37;;;;;;;35.02;21.23;94550.19;5046459;28;20256;-66
2022/06/12 00:19:44;;;;;;;5.40;3.97;;;;;;;34.90;21.26;94545.25;5059264;28;20234;-66
2022/06/12 00:22:28;;;;;;;4.80;4.30;;;;;;;35.08;21.28;94537.75;5058593;28;20276;-66
2022/06/12 00:25:15;;;;;;;5.77;4.93;;;;;;;35.20;21.07;94543.44;5052219;28;20209;-66
2022/06/12 00:27:59;;;;;;;5.30;4.50;;;;;;;35.18;21.28;94547.06;5057062;28;20208;-66
2022/06/12 00:30:43;;;;;;;5.73;4.90;;;;;;;35.39;20.78;94541.75;5046039;28;20274;-66
2022/06/12 00:33:27;;;;;;;5.80;5.00;;;;;;;35.33;21.03;94541.81;5059626;28;20200;-66
2022/06/12 00:36:11;;;;;;;8.67;4.60;;;;;;;35.13;21.18;94539.84;5060730;28;20565;-66
2022/06/12 00:38:55;;;;;;;3.90;3.60;;;;;;;35.21;21.12;94533.97;5061589;28;20617;-66
2022/06/12 00:41:41;;;;;;;4.27;3.87;;;;;;;35.29;21.12;94541.88;5059289;28;20188;-67
2022/06/12 00:44:32;;;;;;;4.73;3.90;;;;;;;35.34;21.06;94539.63;5046925;28;20229;-66
2022/06/12 00:47:16;;;;;;;5.17;4.07;;;;;;;35.43;21.44;94546.81;5057026;28;20285;-66
2022/06/12 00:50:05;;;;;;;3.93;3.53;;;;;;;35.48;21.16;94545.28;5052731;28;20210;-67
2022/06/12 00:52:52;;;;;;;4.37;3.60;;;;;;;35.08;21.52;94540.66;5059252;28;20732;-67
2022/06/12 00:55:43;;;;;;;8.43;4.27;;;;;;;35.26;21.49;94540.44;5045293;28;20618;-66
2022/06/12 00:58:31;;;;;;;5.53;3.93;;;;;;;35.04;21.53;94543.63;5047539;28;20220;-66
2022/06/12 01:01:24;;;;;;;4.30;3.90;;;;;;;35.09;22.00;94533.38;5054145;28;20252;-66
2022/06/12 01:07:16;;;;;;;3.53;3.20;;;;;;;35.54;21.47;94534.25;5050492;28;20681;-66
2022/06/12 01:10:07;;;;;;;4.27;3.00;;;;;;;35.18;21.89;94529.59;5050095;28;20285;-67
2022/06/12 01:12:55;;;;;;;3.30;3.00;;;;;;;35.19;21.79;94527.41;5050561;28;20253;-66
2022/06/12 01:15:44;;;;;;;3.70;3.00;;;;;;;35.48;21.73;94533.63;5053920;28;20197;-67
2022/06/12 01:18:35;;;;;;;3.07;2.87;;;;;;;35.15;22.23;94527.47;5047313;28;20677;-66
2022/06/12 01:21:32;;;;;;;3.57;2.80;;;;;;;35.88;21.17;94529.38;5056550;28;20565;-66
2022/06/12 01:24:35;;;;;;;3.40;2.80;;;;;;;35.81;21.45;94525.13;5052935;28;20271;-66
2022/06/12 01:27:38;;;;;;;3.37;3.00;;;;;;;35.43;21.66;94526.41;5052038;28;20221;-66
2022/06/12 01:30:36;;;;;;;2.70;2.30;;;;;;;35.79;21.49;94522.97;5046674;28;20288;-66
2022/06/12 01:33:34;;;;;;;2.33;2.13;;;;;;;35.72;21.68;94523.81;5056560;28;20193;-67
2022/06/12 01:36:39;;;;;;;2.97;2.60;;;;;;;35.64;21.45;94524.63;5053118;28;20205;-66
2022/06/12 01:39:36;;;;;;;4.53;2.30;;;;;;;35.95;21.27;94522.72;5048045;28;20793;-67
2022/06/12 01:42:51;;;;;;;2.90;2.40;;;;;;;35.59;21.51;94535.63;5047107;28;20247;-66
2022/06/12 01:45:50;;;;;;;2.80;2.47;;;;;;;35.38;21.83;94516.97;5053755;28;20205;-66
2022/06/12 01:48:46;;;;;;;3.80;2.57;;;;;;;35.89;21.20;94519.16;5058994;28;20244;-67
2022/06/12 01:51:40;;;;;;;2.37;2.17;;;;;;;35.01;22.47;94515.97;5051270;28;20748;-66
2022/06/12 01:54:46;;;;;;;2.67;2.37;;;;;;;35.85;21.17;94519.25;5047698;28;20200;-67
2022/06/12 01:57:46;;;;;;;5.03;2.53;;;;;;;36.00;21.22;94511.69;5043283;28;20244;-68
2022/06/12 02:00:31;;;;;;;4.73;2.30;;;;;;;35.59;21.48;94509.38;5054042;28;20197;-67
2022/06/12 02:03:28;;;;;;;2.67;2.43;;;;;;;35.39;21.71;94500.94;5053444;28;20283;-67
2022/06/12 02:06:28;;;;;;;3.93;2.43;;;;;;;35.37;21.92;94492.19;5055284;28;20244;-66
2022/06/12 02:09:15;;;;;;;3.13;2.40;;;;;;;35.74;21.42;94491.72;5060026;28;20198;-66
2022/06/12 02:15:20;;;;;;;5.83;2.80;;;;;;;35.20;21.97;94491.00;5058985;28;20205;-67
2022/06/12 02:18:19;;;;;;;2.53;2.20;;;;;;;35.45;21.66;94500.84;5056973;28;20229;-66
2022/06/12 02:21:16;;;;;;;3.80;2.43;;;;;;;35.34;21.68;94493.72;5054337;28;20590;-66
2022/06/12 02:24:05;;;;;;;2.97;2.63;;;;;;;35.77;21.29;94496.03;5056867;28;20305;-66
2022/06/12 02:27:02;;;;;;;2.30;2.20;;;;;;;35.67;21.49;94500.53;5053141;28;20252;-66
2022/06/12 02:30:29;;;;;;;3.90;2.60;;;;;;;35.20;21.96;94496.81;5052661;28;20202;-67
2022/06/12 02:33:20;;;;;;;3.00;2.70;;;;;;;35.40;21.51;94490.00;5030837;28;20691;-67
2022/06/12 02:36:10;;;;;;;4.43;2.50;;;;;;;35.47;21.75;94500.81;5053485;28;20213;-67
2022/06/12 02:39:04;;;;;;;3.13;2.83;;;;;;;35.14;22.00;94500.50;5057643;28;20248;-67
2022/06/12 02:41:55;;;;;;;3.33;2.70;;;;;;;35.26;21.75;94499.66;5059301;28;20658;-66
2022/06/12 02:45:09;;;;;;;2.80;2.60;;;;;;;35.11;22.18;94489.66;5049523;28;20596;-67
2022/06/12 02:47:54;;;;;;;3.30;2.90;;;;;;;34.87;22.37;94491.38;5057710;28;20682;-67
2022/06/12 02:50:49;;;;;;;3.60;2.40;;;;;;;35.52;21.29;94492.72;5055644;28;20201;-66
2022/06/12 02:53:40;;;;;;;3.70;2.77;;;;;;;35.38;21.38;94499.47;5054008;28;20263;-67
2022/06/12 02:56:37;;;;;;;2.70;2.50;;;;;;;35.29;21.69;94498.88;5042023;28;20678;-67
2022/06/12 02:59:41;;;;;;;3.47;2.93;;;;;;;35.33;21.32;94491.53;5053738;28;20260;-66
2022/06/12 03:02:35;;;;;;;3.07;2.87;;;;;;;35.33;21.51;94498.09;5046970;28;20201;-67
2022/06/12 03:05:26;;;;;;;3.07;2.87;;;;;;;35.30;21.27;94502.53;5046543;28;20202;-66
2022/06/12 03:08:16;;;;;;;3.13;2.83;;;;;;;34.97;22.30;94504.38;5057825;28;20314;-67
2022/06/12 03:11:24;;;;;;;3.33;2.97;;;;;;;35.07;21.79;94501.34;5059520;28;20267;-67
2022/06/12 03:14:13;;;;;;;3.23;2.80;;;;;;;34.78;22.09;94501.69;5053782;28;20240;-66
2022/06/12 03:16:57;;;;;;;11.30;3.90;;;;;;;34.77;22.23;94500.25;5051337;28;20221;-67
2022/06/12 03:19:47;;;;;;;5.60;3.10;;;;;;;34.98;22.03;94505.84;5058786;28;20193;-67
2022/06/12 03:22:48;;;;;;;4.60;3.20;;;;;;;34.90;22.06;94507.38;5055746;28;20276;-66
2022/06/12 03:25:45;;;;;;;4.97;3.07;;;;;;;35.25;21.64;94509.84;5060041;28;20197;-67
2022/06/12 03:28:57;;;;;;;4.10;3.20;;;;;;;35.15;21.92;94509.97;5051515;28;20221;-67
2022/06/12 03:32:01;;;;;;;2.80;2.60;;;;;;;34.78;22.27;94512.63;5046699;28;20718;-66
2022/06/12 03:34:51;;;;;;;3.13;2.90;;;;;;;34.95;22.04;94516.06;5056693;28;20247;-66
2022/06/12 03:37:57;;;;;;;4.03;3.20;;;;;;;34.67;22.60;94514.91;5057274;28;20200;-66
2022/06/12 03:40:51;;;;;;;4.63;3.10;;;;;;;34.05;23.11;94511.13;5056466;28;20201;-66
2022/06/12 03:43:57;;;;;;;4.57;3.40;;;;;;;35.01;22.15;94521.81;5055939;28;20220;-67
2022/06/12 03:46:50;;;;;;;3.40;3.10;;;;;;;34.91;22.21;94519.75;5066712;28;20657;-67
2022/06/12 03:49:41;;;;;;;3.47;3.17;;;;;;;35.27;21.94;94525.13;5051871;28;20228;-67
2022/06/12 03:52:36;;;;;;;3.43;3.00;;;;;;;34.88;22.59;94530.69;5052433;28;20194;-67
2022/06/12 03:57:50;;;;;;;4.23;2.63;;;;;;;35.63;21.68;94532.66;5059013;28;20217;-67
2022/06/12 03:58:35;;;;;;;4.33;2.67;;;;;;;35.53;21.81;94529.16;5056298;28;20681;-67
2022/06/12 04:01:20;;;;;;;8.40;3.27;;;;;;;35.14;22.38;94528.94;5053961;28;20201;-67
2022/06/12 04:04:05;;;;;;;3.93;2.60;;;;;;;35.11;22.38;94530.44;5055237;28;20213;-67
2022/06/12 04:06:51;;;;;;;2.67;2.47;;;;;;;35.13;22.53;94527.47;5052691;28;20216;-67
2022/06/12 04:09:43;;;;;;;3.10;2.80;;;;;;;35.80;21.51;94536.06;5053508;28;20874;-67
2022/06/12 04:12:31;;;;;;;3.50;2.40;;;;;;;35.64;21.97;94528.25;5062640;28;20224;-67
2022/06/12 04:15:22;;;;;;;2.77;2.37;;;;;;;35.37;22.06;94526.47;5057700;28;20746;-67
2022/06/12 04:18:06;;;;;;;3.17;2.53;;;;;;;35.98;21.76;94527.06;5052817;28;20193;-67
2022/06/12 04:20:59;;;;;;;2.00;1.90;;;;;;;35.46;22.02;94525.59;5055804;28;20749;-66
2022/06/12 04:24:02;;;;;;;3.20;2.27;;;;;;;35.38;22.17;94525.72;5051746;28;20225;-67
2022/06/12 04:26:54;;;;;;;2.57;2.37;;;;;;;35.65;21.98;94520.25;5058406;28;20213;-67
2022/06/12 04:29:48;;;;;;;3.77;2.57;;;;;;;35.82;21.78;94517.81;5052364;28;20256;-66
2022/06/12 04:32:32;;;;;;;2.93;2.40;;;;;;;36.13;21.34;94524.59;5055433;28;20206;-67
2022/06/12 04:35:17;;;;;;;2.50;2.27;;;;;;;36.66;21.17;94524.47;5054884;28;20213;-66
2022/06/12 04:38:01;;;;;;;2.70;1.83;;;;;;;36.33;21.20;94515.53;5052168;28;20229;-67
2022/06/12 04:40:45;;;;;;;1.80;1.70;;;;;;;36.18;21.73;94508.50;5056695;28;20232;-66
2022/06/12 04:43:30;;;;;;;1.80;1.63;;;;;;;36.83;20.71;94508.06;5050428;28;20713;-67
2022/06/12 04:46:14;;;;;;;2.37;1.90;;;;;;;36.62;21.21;94506.25;5062451;28;20259;-66
2022/06/12 04:48:59;;;;;;;4.83;2.23;;;;;;;37.24;20.60;94507.97;5061250;28;20205;-67
2022/06/12 04:51:45;;;;;;;1.83;1.73;;;;;;;37.79;19.92;94509.66;5050369;28;20201;-67
2022/06/12 04:54:31;;;;;;;2.27;2.07;;;;;;;37.66;20.46;94508.50;5058560;28;20198;-67
2022/06/12 04:57:17;;;;;;;2.20;2.00;;;;;;;37.23;20.75;94509.44;5049551;28;20255;-66
2022/06/12 05:00:01;;;;;;;1.90;1.80;;;;;;;38.13;20.17;94516.22;5057597;28;20274;-66
2022/06/12 05:02:45;;;;;;;4.73;2.40;;;;;;;38.09;20.13;94516.31;5050190;28;20305;-67
2022/06/12 05:05:30;;;;;;;5.33;2.03;;;;;;;37.91;20.08;94515.25;5050232;28;20267;-67
2022/06/12 05:08:16;;;;;;;2.30;2.10;;;;;;;38.16;20.43;94518.31;5054362;28;20201;-66
2022/06/12 05:11:01;;;;;;;2.47;2.27;;;;;;;37.52;21.13;94523.44;5050957;28;20373;-67
2022/06/12 05:13:45;;;;;;;3.33;2.17;;;;;;;38.11;20.36;94519.19;5048595;28;20185;-67
2022/06/12 05:16:40;;;;;;;3.00;1.77;;;;;;;37.71;20.99;94521.59;5057071;28;20208;-67
2022/06/12 05:19:30;;;;;;;2.07;1.87;;;;;;;38.05;20.33;94517.84;5066748;28;20279;-67
2022/06/12 05:22:15;;;;;;;1.70;1.60;;;;;;;37.57;21.12;94519.69;5053035;28;20336;-67
2022/06/12 05:24:59;;;;;;;2.67;2.07;;;;;;;38.31;20.09;94521.63;5055560;28;20220;-66
2022/06/12 05:27:45;;;;;;;2.50;2.00;;;;;;;38.67;20.13;94529.47;5053859;28;20213;-66
2022/06/12 05:30:32;;;;;;;8.27;1.90;;;;;;;38.59;20.19;94520.91;5054798;28;20193;-67
2022/06/12 05:33:17;;;;;;;2.83;1.90;;;;;;;39.10;19.88;94519.53;5052199;28;20205;-67
2022/06/12 05:36:03;;;;;;;1.50;1.40;;;;;;;38.61;20.34;94520.84;5057679;28;20282;-67
2022/06/12 05:38:47;;;;;;;2.63;2.20;;;;;;;38.46;20.22;94517.53;5053695;28;20202;-67
2022/06/12 05:41:31;;;;;;;2.90;1.73;;;;;;;38.89;20.04;94512.78;5053541;28;20197;-67
2022/06/12 05:44:17;;;;;;;1.70;1.60;;;;;;;38.88;19.92;94520.13;5049457;28;20299;-68
2022/06/12 05:47:01;;;;;;;5.27;1.77;;;;;;;38.98;20.04;94514.72;5054583;28;20197;-67
2022/06/12 05:49:45;;;;;;;2.50;1.83;;;;;;;39.24;20.16;94516.19;5051281;28;20197;-67
2022/06/12 05:52:29;;;;;;;2.43;1.60;;;;;;;38.70;20.50;94510.34;5048685;28;20244;-67
2022/06/12 05:55:14;;;;;;;1.83;1.73;;;;;;;39.31;19.91;94514.53;5055807;28;20229;-67
2022/06/12 05:57:58;;;;;;;3.30;1.50;;;;;;;39.06;19.82;94513.78;5057315;28;20251;-68
2022/06/12 06:00:43;;;;;;;2.33;1.57;;;;;;;40.54;18.74;94518.00;5045082;28;20209;-67
2022/06/12 06:03:27;;;;;;;2.10;1.70;;;;;;;40.35;19.07;94512.75;5059014;28;20216;-67
2022/06/12 06:06:17;;;;;;;2.17;1.80;;;;;;;40.02;19.27;94515.31;5051276;28;20259;-68
2022/06/12 06:09:03;;;;;;;2.43;1.83;;;;;;;39.48;19.58;94515.50;5056321;28;20270;-67
2022/06/12 06:11:47;;;;;;;1.60;1.50;;;;;;;40.23;19.13;94524.91;5052589;28;20732;-67
2022/06/12 06:14:32;;;;;;;4.37;1.60;;;;;;;40.66;19.13;94518.34;5053046;28;20248;-67
2022/06/12 06:17:16;;;;;;;1.80;1.70;;;;;;;40.51;18.99;94525.44;5049612;28;20721;-67
2022/06/12 06:20:00;;;;;;;3.57;1.90;;;;;;;41.48;18.19;94533.81;5061627;28;20228;-67
2022/06/12 06:22:45;;;;;;;1.63;1.53;;;;;;;40.52;19.14;94515.13;5052573;28;20197;-67
2022/06/12 06:25:31;;;;;;;4.80;1.67;;;;;;;40.83;18.96;94533.19;5054199;28;20197;-67
2022/06/12 06:28:15;;;;;;;1.90;1.80;;;;;;;41.67;18.29;94525.69;5056539;28;20214;-68
2022/06/12 06:31:00;;;;;;;1.70;1.60;;;;;;;41.20;18.77;94524.50;5051411;28;20276;-67
2022/06/12 06:33:44;;;;;;;3.40;1.67;;;;;;;41.50;18.56;94530.75;5051191;28;20256;-67
2022/06/12 06:36:28;;;;;;;2.60;1.20;;;;;;;41.86;18.06;94529.34;5055577;28;20252;-67
2022/06/12 06:39:12;;;;;;;1.60;1.50;;;;;;;42.20;17.73;94535.41;5060572;28;20284;-68
2022/06/12 06:41:56;;;;;;;3.33;1.60;;;;;;;41.88;17.88;94535.16;5054754;28;20216;-67
2022/06/12 06:47:43;;;;;;;4.03;1.70;;;;;;;42.68;17.80;94539.28;5048187;28;20285;-67
2022/06/12 06:50:28;;;;;;;1.87;1.50;;;;;;;42.40;18.00;94534.59;5055313;28;20290;-68
2022/06/12 06:53:12;;;;;;;1.80;1.47;;;;;;;42.59;17.45;94538.19;5054046;28;20201;-67
2022/06/12 06:55:56;;;;;;;2.03;1.40;;;;;;;42.86;17.00;94534.88;5051109;28;20239;-68
2022/06/12 06:58:40;;;;;;;1.50;1.40;;;;;;;43.54;16.68;94542.91;5063072;28;20250;-68
2022/06/12 07:01:24;;;;;;;2.22;1.05;;;;;;;42.75;16.78;94540.50;5053275;28;20658;-67
2022/06/12 07:04:08;;;;;;;2.60;1.10;;;;;;;42.62;16.95;94527.75;5057406;28;20284;-67
2022/06/12 07:06:52;;;;;;;1.17;0.93;;;;;;;43.13;16.27;94528.56;5058226;28;20199;-68
2022/06/12 07:09:40;;;;;;;1.10;0.90;;;;;;;43.34;16.20;94537.19;5052575;28;20252;-68
2022/06/12 07:12:24;;;;;;;1.50;0.98;;;;;;;43.53;16.32;94534.84;5059821;28;20205;-68
2022/06/12 07:15:11;;;;;;;1.38;0.90;;;;;;;43.71;15.75;94533.28;5050005;28;20248;-68
2022/06/12 07:17:55;;;;;;;1.70;1.00;;;;;;;43.98;16.19;94533.50;5051583;28;20197;-67
2022/06/12 07:20:46;;;;;;;1.75;0.80;;;;;;;45.44;15.23;94540.94;5054137;28;20198;-67
2022/06/12 07:23:32;;;;;;;1.42;1.10;;;;;;;45.74;14.96;94544.53;5057148;28;20633;-68
2022/06/12 07:26:26;;;;;;;2.22;1.00;;;;;;;45.87;14.47;94540.06;5058963;28;20210;-66
2022/06/12 07:29:10;;;;;;;1.42;0.93;;;;;;;45.84;14.09;94538.75;5059732;28;20242;-66
2022/06/12 07:31:55;;;;;;;0.93;0.90;;;;;;;45.73;14.02;94537.88;5055372;28;20608;-66
2022/06/12 07:34:39;;;;;;;3.20;1.00;;;;;;;46.45;13.74;94538.28;5057031;28;20674;-66
2022/06/12 07:37:23;;;;;;;1.30;0.98;;;;;;;46.68;12.95;94547.34;5057594;28;20295;-66
2022/06/12 07:40:15;;;;;;;1.17;1.08;;;;;;;45.67;15.30;94540.47;5061229;28;20278;-66
2022/06/12 07:42:59;;;;;;;1.55;1.00;;;;;;;47.49;14.48;94547.69;5046764;28;20205;-66
2022/06/12 07:45:44;;;;;;;0.82;0.77;;;;;;;46.69;14.97;94548.75;5057664;28;20216;-66
2022/06/12 07:48:31;;;;;;;1.23;0.90;;;;;;;48.09;13.27;94543.19;5059052;28;20245;-66
2022/06/12 07:51:18;;;;;;;1.02;0.93;;;;;;;47.56;14.01;94551.00;5050434;28;20204;-66
2022/06/12 07:54:03;;;;;;;1.52;0.93;;;;;;;46.78;13.36;94542.34;5057629;28;20207;-66
2022/06/12 07:56:48;;;;;;;4.30;1.00;;;;;;;47.59;11.95;94549.34;5052762;28;20614;-66
2022/06/12 07:59:32;;;;;;;2.58;0.90;;;;;;;49.23;10.79;94547.56;5055105;28;20205;-66
2022/06/12 08:02:17;;;;;;;1.73;0.90;;;;;;;49.98;10.71;94551.22;5048283;28;20247;-66
2022/06/12 08:05:02;;;;;;;2.22;0.85;;;;;;;50.51;9.95;94554.78;5063130;28;20597;-66
2022/06/12 08:07:47;;;;;;;2.55;1.02;;;;;;;49.92;10.33;94543.44;5063019;28;20272;-66
2022/06/12 08:10:31;;;;;;;2.83;1.08;;;;;;;49.30;10.55;94545.56;5049884;28;20205;-66
2022/06/12 08:13:17;;;;;;;0.80;0.80;;;;;;;50.78;10.17;94546.84;5036696;28;20653;-67
2022/06/12 08:16:01;;;;;;;2.80;1.00;;;;;;;50.63;9.54;94552.44;5052643;28;20245;-66
2022/06/12 08:18:46;;;;;;;1.40;1.10;;;;;;;51.11;10.22;94551.06;5055240;28;20229;-67
2022/06/12 08:21:30;;;;;;;2.30;1.45;;;;;;;52.44;9.45;94554.72;5058302;28;20248;-67
2022/06/12 08:24:15;;;;;;;3.03;1.23;;;;;;;51.31;9.41;94541.25;5053759;28;20229;-67
2022/06/12 08:26:59;;;;;;;1.83;0.98;;;;;;;52.13;8.63;94547.53;5058842;28;20209;-67
2022/06/12 08:29:43;;;;;;;1.65;0.82;;;;;;;51.93;9.33;94555.84;5046591;28;20256;-67
2022/06/12 08:32:27;;;;;;;2.30;1.17;;;;;;;50.34;9.32;94548.59;5059294;28;20209;-67
2022/06/12 08:35:16;;;;;;;1.40;1.02;;;;;;;49.52;10.34;94540.34;5055584;28;20247;-67
2022/06/12 08:38:00;;;;;;;1.13;1.02;;;;;;;50.19;10.15;94539.25;5048683;28;20665;-67
2022/06/12 08:40:59;;;;;;;1.95;1.00;;;;;;;51.11;9.45;94548.78;5052923;28;20220;-65
2022/06/12 08:44:04;;;;;;;2.20;1.10;;;;;;;50.20;10.59;94540.69;5045172;28;20221;-67
2022/06/12 08:47:12;;;;;;;5.85;1.85;;;;;;;51.12;9.56;94532.28;5064592;28;20569;-67
2022/06/12 08:50:26;;;;;;;1.42;0.65;;;;;;;49.74;9.85;94535.78;5046593;28;20198;-67
2022/06/12 08:53:32;;;;;;;2.10;1.20;;;;;;;48.64;10.48;94530.69;5052441;28;20227;-67
2022/06/12 08:56:35;;;;;;;2.00;0.82;;;;;;;48.50;10.91;94522.72;5055840;28;20252;-67
2022/06/12 08:59:27;;;;;;;1.85;0.90;;;;;;;50.00;10.22;94518.97;5058312;28;20697;-67
2022/06/12 09:02:28;;;;;;;3.28;1.17;;;;;;;50.49;9.30;94528.06;5047936;28;20902;-67
2022/06/12 09:05:41;;;;;;;1.27;0.82;;;;;;;51.68;8.42;94527.16;5048198;28;20229;-67
2022/06/12 09:08:30;;;;;;;1.83;0.80;;;;;;;50.11;10.51;94522.66;5060160;28;20233;-68
2022/06/12 09:11:31;;;;;;;2.63;1.85;;;;;;;50.15;10.33;94521.66;5055405;28;20232;-67
2022/06/12 09:14:41;;;;;;;5.50;3.10;;;;;;;52.00;10.11;94523.16;5056025;28;20208;-67
2022/06/12 09:17:53;;;;;;;3.50;1.25;;;;;;;52.38;9.51;94522.31;5050859;28;20706;-67
2022/06/12 09:21:06;;;;;;;1.58;0.93;;;;;;;49.93;10.53;94514.34;5050134;28;20248;-67
2022/06/12 09:24:17;;;;;;;1.70;1.35;;;;;;;50.98;9.89;94518.47;5062101;28;20853;-67
2022/06/12 09:27:18;;;;;;;1.33;1.17;;;;;;;48.71;11.55;94510.84;5051892;28;20255;-68
2022/06/12 09:30:02;;;;;;;2.53;1.50;;;;;;;52.12;9.71;94516.91;5049710;28;20192;-67
2022/06/12 09:33:03;;;;;;;1.90;1.23;;;;;;;50.88;9.77;94516.22;5055294;28;20289;-67
2022/06/12 09:36:17;;;;;;;4.03;2.15;;;;;;;51.44;10.17;94510.41;5050841;28;20303;-67
2022/06/12 09:39:31;;;;;;;2.30;1.38;;;;;;;50.43;10.71;94510.59;5045647;28;20208;-66
2022/06/12 09:42:20;;;;;;;7.00;2.50;;;;;;;50.33;10.92;94504.69;5052924;28;20208;-66
2022/06/12 09:45:37;;;;;;;14.50;13.40;;;;;;;51.44;9.12;94504.44;5050262;28;20216;-66
2022/06/12 09:48:39;;;;;;;1.90;1.13;;;;;;;52.08;8.99;94517.22;5043918;28;20568;-67
2022/06/12 09:51:29;;;;;;;8.57;7.72;;;;;;;48.40;11.41;94499.56;5051652;28;20562;-67
2022/06/12 09:54:37;;;;;;;26.13;23.70;;;;;;;52.73;9.07;94511.88;5051828;28;20229;-67
2022/06/12 09:57:43;;;;;;;6.75;1.30;;;;;;;52.56;8.89;94499.88;5046250;28;20249;-67
2022/06/12 10:00:34;;;;;;;2.17;1.13;;;;;;;52.34;9.00;94498.72;5049107;28;20236;-68
2022/06/12 10:03:47;;;;;;;1.40;0.82;;;;;;;53.47;8.45;94495.09;5051738;28;20228;-68
2022/06/12 10:06:44;;;;;;;2.33;1.23;;;;;;;52.39;9.40;94488.53;5051255;28;20190;-67
2022/06/12 10:09:37;;;;;;;1.95;0.95;;;;;;;52.84;8.42;94497.47;5050510;28;20297;-68
2022/06/12 10:12:26;;;;;;;1.73;1.05;;;;;;;53.16;8.42;94478.34;5056587;28;20240;-67
2022/06/12 10:15:17;;;;;;;2.42;0.98;;;;;;;54.68;7.22;94488.78;5047477;28;20217;-68
2022/06/12 10:18:12;;;;;;;4.45;0.90;;;;;;;54.69;7.57;94472.19;5054943;28;20200;-68
2022/06/12 10:21:02;;;;;;;1.52;1.35;;;;;;;55.40;7.38;94468.53;5057626;28;20674;-68
2022/06/12 10:23:47;;;;;;;1.42;0.80;;;;;;;55.21;7.41;94473.28;5055150;28;20651;-68
2022/06/12 10:26:32;;;;;;;2.13;1.00;;;;;;;57.20;5.85;94477.75;5053706;28;20282;-69
2022/06/12 10:29:16;;;;;;;1.08;0.90;;;;;;;57.89;6.00;94473.56;5060462;28;20205;-69
2022/06/12 10:32:04;;;;;;;1.45;1.00;;;;;;;55.97;6.87;94475.81;5053373;28;20277;-69
2022/06/12 10:34:50;;;;;;;1.88;0.88;;;;;;;54.81;7.21;94465.06;5051174;28;20189;-69
2022/06/12 10:37:35;;;;;;;2.80;0.80;;;;;;;55.09;7.24;94467.72;5058254;28;20197;-69
2022/06/12 10:40:24;;;;;;;2.85;1.05;;;;;;;53.79;7.45;94467.56;5060360;28;20201;-70
2022/06/12 10:43:22;;;;;;;2.38;1.00;;;;;;;55.30;7.87;94460.47;5054421;28;20248;-68
2022/06/12 10:46:18;;;;;;;0.95;0.90;;;;;;;58.13;5.44;94467.97;5053095;28;20216;-69
2022/06/12 10:49:15;;;;;;;2.60;0.80;;;;;;;57.77;4.97;94474.84;5056902;28;20235;-69
2022/06/12 10:52:08;;;;;;;1.00;0.63;;;;;;;59.63;3.93;94468.88;5058660;28;20649;-68
2022/06/12 10:54:52;;;;;;;1.70;0.98;;;;;;;57.10;5.35;94460.69;5056655;28;20331;-69
2022/06/12 10:57:55;;;;;;;1.17;0.85;;;;;;;53.78;7.87;94448.16;5054152;28;20235;-70
2022/06/12 11:00:42;;;;;;;1.67;0.90;;;;;;;54.44;6.27;94450.44;5052773;28;20213;-69
2022/06/12 11:03:40;;;;;;;0.55;0.55;;;;;;;55.30;6.38;94442.44;5056036;28;20220;-68
2022/06/12 11:06:40;;;;;;;1.00;0.70;;;;;;;52.58;6.13;94436.84;5059896;28;20670;-70
2022/06/12 11:09:40;;;;;;;2.15;0.80;;;;;;;57.97;4.70;94436.47;5047335;28;20598;-69
2022/06/12 11:12:39;;;;;;;1.00;0.75;;;;;;;54.64;6.14;94423.09;5054754;28;20641;-69
2022/06/12 11:15:48;;;;;;;1.73;0.70;;;;;;;57.88;4.77;94438.97;5053627;28;20279;-69
2022/06/12 11:19:00;;;;;;;1.80;0.68;;;;;;;58.31;3.94;94426.75;5047507;28;20196;-70
2022/06/12 11:22:09;;;;;;;2.00;0.65;;;;;;;59.56;3.76;94435.59;5058339;28;20201;-71
2022/06/12 11:25:38;;;;;;;1.23;0.60;;;;;;;58.71;4.15;94426.94;5049339;28;20785;-70
2022/06/12 11:28:41;;;;;;;0.63;0.40;;;;;;;58.69;4.48;94424.19;5032842;28;20225;-70
2022/06/12 11:31:42;;;;;;;0.63;0.40;;;;;;;56.17;5.31;94418.91;5008453;28;20225;-69
2022/06/12 11:34:42;;;;;;;1.85;0.77;;;;;;;55.64;5.01;94412.03;5058120;28;20567;-69
2022/06/12 11:38:04;;;;;;;1.33;0.70;;;;;;;57.62;4.10;94408.56;5052916;28;20197;-70
2022/06/12 11:41:34;;;;;;;0.88;0.50;;;;;;;55.34;4.73;94402.97;5057598;28;20702;-71
2022/06/12 11:44:20;;;;;;;1.58;0.68;;;;;;;58.60;4.27;94405.50;5051114;28;20217;-71
2022/06/12 11:47:32;;;;;;;0.93;0.52;;;;;;;57.68;4.35;94407.91;5056723;28;20204;-69
2022/06/12 11:50:22;;;;;;;1.95;0.85;;;;;;;57.94;4.79;94405.13;5060032;28;20241;-70
2022/06/12 11:53:39;;;;;;;1.33;0.57;;;;;;;58.30;3.93;94395.13;5054630;28;20201;-70
2022/06/12 11:56:26;;;;;;;1.23;0.57;;;;;;;56.75;4.07;94394.91;5043920;28;20201;-70
2022/06/12 11:59:25;;;;;;;0.57;0.35;;;;;;;58.39;3.63;94388.25;5054430;28;20267;-70
2022/06/12 12:02:44;;;;;;;1.30;0.70;;;;;;;58.75;3.67;94390.25;5055210;28;20200;-69
2022/06/12 12:05:45;;;;;;;1.85;0.80;;;;;;;60.19;3.58;94386.66;5048375;28;20709;-70
2022/06/12 12:08:37;;;;;;;0.98;0.50;;;;;;;60.87;3.50;94385.50;5059941;28;20281;-72
2022/06/12 12:11:27;;;;;;;1.55;0.70;;;;;;;54.92;5.50;94375.41;5054477;28;20224;-72
2022/06/12 12:14:18;;;;;;;2.63;0.70;;;;;;;59.09;4.09;94377.34;5050184;28;20398;-71
2022/06/12 12:17:11;;;;;;;1.58;0.55;;;;;;;59.56;3.62;94372.06;5048654;28;20237;-70
2022/06/12 12:20:16;;;;;;;1.85;0.60;;;;;;;59.96;3.50;94365.97;5059451;28;20239;-71
2022/06/12 12:23:08;;;;;;;0.55;0.40;;;;;;;57.56;4.45;94367.69;5056631;28;20663;-71
2022/06/12 12:26:33;;;;;;;2.63;0.80;;;;;;;57.47;3.42;94364.13;5056163;28;20196;-70
2022/06/12 12:29:23;;;;;;;0.70;0.40;;;;;;;59.03;3.80;94362.22;5057098;28;20277;-71
2022/06/12 12:32:10;;;;;;;1.10;0.80;;;;;;;57.67;5.01;94361.25;5057267;28;20208;-70
2022/06/12 12:34:56;;;;;;;2.85;0.60;;;;;;;60.83;3.89;94356.38;5053826;28;20200;-70
2022/06/12 12:43:48;;;;;;;0.90;0.50;;;;;;;59.63;4.10;94353.91;5048432;28;20231;-71
2022/06/12 12:46:42;;;;;;;0.73;0.65;;;;;;;58.89;4.22;94354.72;5049719;28;20281;-71
2022/06/12 12:49:33;;;;;;;0.65;0.65;;;;;;;59.58;3.80;94347.63;5053388;28;20701;-70
2022/06/12 12:52:20;;;;;;;0.80;0.57;;;;;;;62.70;3.09;94367.34;5052352;28;20192;-71
2022/06/12 12:55:15;;;;;;;1.38;0.68;;;;;;;62.69;2.58;94356.84;5049389;28;20674;-73
2022/06/12 12:58:13;;;;;;;0.90;0.50;;;;;;;63.18;2.59;94363.41;5052074;28;20204;-73
2022/06/12 13:01:02;;;;;;;1.00;0.60;;;;;;;59.89;3.92;94344.78;5046973;28;20255;-73
2022/06/12 13:03:51;;;;;;;2.03;0.73;;;;;;;61.51;3.07;94358.03;5050660;28;20227;-73
2022/06/12 13:06:53;;;;;;;0.43;0.38;;;;;;;60.20;3.47;94348.00;5053215;28;20204;-73
2022/06/12 13:09:56;;;;;;;2.45;0.55;;;;;;;61.58;3.40;94349.59;5054473;28;20680;-73
2022/06/12 13:12:52;;;;;;;1.50;0.63;;;;;;;61.98;3.52;94352.97;5050876;28;20192;-73
2022/06/12 13:15:45;;;;;;;1.40;0.68;;;;;;;64.91;2.25;94356.28;5051424;28;20228;-73
2022/06/12 13:18:57;;;;;;;0.73;0.60;;;;;;;62.09;2.94;94347.03;5045961;28;20204;-75
2022/06/12 13:21:56;;;;;;;1.08;0.70;;;;;;;59.96;4.18;94324.28;5048092;28;20188;-71
2022/06/12 13:24:45;;;;;;;1.15;0.55;;;;;;;57.75;4.18;94324.19;5050286;28;20691;-73
2022/06/12 13:27:45;;;;;;;1.00;0.60;;;;;;;60.58;3.82;94319.19;5057962;28;20252;-71
2022/06/12 13:30:39;;;;;;;1.00;0.60;;;;;;;60.63;3.77;94316.38;5052648;28;20200;-74
2022/06/12 13:33:29;;;;;;;1.85;0.70;;;;;;;58.69;4.74;94309.38;5054737;28;20615;-73
2022/06/12 13:36:14;;;;;;;1.50;0.68;;;;;;;60.80;3.42;94309.06;5056955;28;20267;-72
2022/06/12 13:39:06;;;;;;;1.08;0.80;;;;;;;62.48;3.06;94312.44;5055353;28;20806;-74
2022/06/12 13:42:04;;;;;;;1.25;0.77;;;;;;;60.76;3.78;94297.44;5056877;28;20561;-73
2022/06/12 13:44:49;;;;;;;0.95;0.82;;;;;;;61.43;3.36;94311.88;5054089;28;20545;-73
2022/06/12 13:47:35;;;;;;;0.73;0.50;;;;;;;59.22;3.97;94291.28;5048215;28;20251;-74
2022/06/12 13:50:26;;;;;;;1.20;0.80;;;;;;;59.87;4.53;94291.28;5051901;28;20220;-75